sensor_id;sensor_type;location;lat;lon;timestamp;P1;durP1;ratioP1;P2;durP2;ratioP2
48588;SDS011;34369;51.174;6.738;2023-11-19T00:00:23;34.78;;;32.60;;
48588;SDS011;34369;51.174;6.738;2023-11-19T00:02:56;34.33;;;32.30;;
48588;SDS011;34369;51.174;6.738;2023-11-19T00:05:30;34.65;;;32.58;;
48588;SDS011;34369;51.174;6.738;2023-11-19T00:08:04;34.95;;;32.85;;
48588;SDS011;34369;51.174;6.738;2023-11-19T00:10:44;34.70;;;32.60;;
48588;SDS011;34369;51.174;6.738;2023-11-19T00:13:22;34.33;;;32.33;;
48588;SDS011;34369;51.174;6.738;2023-11-19T00:16:00;34.58;;;32.58;;
48588;SDS011;34369;51.174;6.738;2023-11-19T00:18:38;34.13;;;32.13;;
48588;SDS011;34369;51.174;6.738;2023-11-19T00:21:18;34.50;;;32.50;;
48588;SDS011;34369;51.174;6.738;2023-11-19T00:24:11;34.17;;;32.17;;
48588;SDS011;34369;51.174;6.738;2023-11-19T00:26:47;33.63;;;31.63;;
48588;SDS011;34369;51.174;6.738;2023-11-19T00:29:35;33.25;;;31.25;;
48588;SDS011;34369;51.174;6.738;2023-11-19T00:32:16;34.17;;;32.17;;
48588;SDS011;34369;51.174;6.738;2023-11-19T00:34:49;32.65;;;30.65;;
48588;SDS011;34369;51.174;6.738;2023-11-19T00:37:23;34.00;;;32.00;;
48588;SDS011;34369;51.174;6.738;2023-11-19T00:39:57;34.33;;;32.13;;
48588;SDS011;34369;51.174;6.738;2023-11-19T00:42:31;31.98;;;30.08;;
48588;SDS011;34369;51.174;6.738;2023-11-19T00:45:13;32.95;;;30.90;;
48588;SDS011;34369;51.174;6.738;2023-11-19T00:47:47;33.20;;;31.20;;
48588;SDS011;34369;51.174;6.738;2023-11-19T00:50:30;33.42;;;31.42;;
48588;SDS011;34369;51.174;6.738;2023-11-19T00:53:15;32.72;;;30.70;;
48588;SDS011;34369;51.174;6.738;2023-11-19T00:56:04;33.33;;;31.33;;
48588;SDS011;34369;51.174;6.738;2023-11-19T01:09:10;33.53;;;31.52;;
48588;SDS011;34369;51.174;6.738;2023-11-19T01:11:46;33.40;;;31.40;;
48588;SDS011;34369;51.174;6.738;2023-11-19T01:21:50;33.30;;;31.30;;
48588;SDS011;34369;51.174;6.738;2023-11-19T01:28:03;33.33;;;31.38;;
48588;SDS011;34369;51.174;6.738;2023-11-19T01:30:40;32.63;;;30.67;;
48588;SDS011;34369;51.174;6.738;2023-11-19T01:33:47;32.05;;;30.15;;
48588;SDS011;34369;51.174;6.738;2023-11-19T01:36:38;32.65;;;30.67;;
48588;SDS011;34369;51.174;6.738;2023-11-19T01:39:18;32.58;;;30.60;;
48588;SDS011;34369;51.174;6.738;2023-11-19T01:41:51;33.10;;;31.10;;
48588;SDS011;34369;51.174;6.738;2023-11-19T01:47:54;32.60;;;30.70;;
48588;SDS011;34369;51.174;6.738;2023-11-19T01:50:27;33.05;;;31.10;;
48588;SDS011;34369;51.174;6.738;2023-11-19T01:53:30;32.38;;;30.38;;
48588;SDS011;34369;51.174;6.738;2023-11-19T01:56:31;33.60;;;31.40;;
48588;SDS011;34369;51.174;6.738;2023-11-19T01:59:09;33.20;;;31.20;;
48588;SDS011;34369;51.174;6.738;2023-11-19T02:01:45;33.80;;;31.70;;
48588;SDS011;34369;51.174;6.738;2023-11-19T02:04:19;33.05;;;31.05;;
48588;SDS011;34369;51.174;6.738;2023-11-19T02:06:55;33.47;;;31.38;;
48588;SDS011;34369;51.174;6.738;2023-11-19T02:09:40;33.10;;;31.10;;
48588;SDS011;34369;51.174;6.738;2023-11-19T02:12:16;33.42;;;31.23;;
48588;SDS011;34369;51.174;6.738;2023-11-19T02:14:50;32.47;;;30.48;;
48588;SDS011;34369;51.174;6.738;2023-11-19T02:17:26;34.17;;;32.08;;
48588;SDS011;34369;51.174;6.738;2023-11-19T02:19:59;34.00;;;31.80;;
48588;SDS011;34369;51.174;6.738;2023-11-19T02:22:33;33.47;;;31.17;;
48588;SDS011;34369;51.174;6.738;2023-11-19T02:25:07;33.90;;;31.30;;
48588;SDS011;34369;51.174;6.738;2023-11-19T02:27:51;33.20;;;30.95;;
48588;SDS011;34369;51.174;6.738;2023-11-19T02:30:27;33.63;;;31.33;;
48588;SDS011;34369;51.174;6.738;2023-11-19T02:32:59;33.90;;;31.70;;
48588;SDS011;34369;51.174;6.738;2023-11-19T02:35:35;33.08;;;30.88;;
48588;SDS011;34369;51.174;6.738;2023-11-19T02:38:07;34.30;;;31.90;;
48588;SDS011;34369;51.174;6.738;2023-11-19T02:40:41;34.53;;;32.22;;
48588;SDS011;34369;51.174;6.738;2023-11-19T02:43:15;33.45;;;31.25;;
48588;SDS011;34369;51.174;6.738;2023-11-19T02:45:48;33.30;;;31.02;;
48588;SDS011;34369;51.174;6.738;2023-11-19T02:48:20;34.28;;;31.98;;
48588;SDS011;34369;51.174;6.738;2023-11-19T02:50:53;33.38;;;31.17;;
48588;SDS011;34369;51.174;6.738;2023-11-19T02:53:28;33.38;;;31.27;;
48588;SDS011;34369;51.174;6.738;2023-11-19T02:56:01;34.45;;;31.98;;
48588;SDS011;34369;51.174;6.738;2023-11-19T02:58:44;34.35;;;31.95;;
48588;SDS011;34369;51.174;6.738;2023-11-19T03:01:21;33.85;;;31.60;;
48588;SDS011;34369;51.174;6.738;2023-11-19T03:03:59;33.90;;;31.60;;
48588;SDS011;34369;51.174;6.738;2023-11-19T03:06:32;34.15;;;31.85;;
48588;SDS011;34369;51.174;6.738;2023-11-19T03:09:05;33.97;;;31.55;;
48588;SDS011;34369;51.174;6.738;2023-11-19T03:11:40;34.40;;;32.00;;
48588;SDS011;34369;51.174;6.738;2023-11-19T03:14:14;34.67;;;32.10;;
48588;SDS011;34369;51.174;6.738;2023-11-19T03:16:47;34.42;;;32.08;;
48588;SDS011;34369;51.174;6.738;2023-11-19T03:19:19;34.70;;;32.30;;
48588;SDS011;34369;51.174;6.738;2023-11-19T03:21:52;33.30;;;31.10;;
48588;SDS011;34369;51.174;6.738;2023-11-19T03:24:25;34.90;;;32.33;;
48588;SDS011;34369;51.174;6.738;2023-11-19T03:26:58;34.85;;;32.35;;
48588;SDS011;34369;51.174;6.738;2023-11-19T03:29:31;35.22;;;32.72;;
48588;SDS011;34369;51.174;6.738;2023-11-19T03:32:04;34.60;;;31.92;;
48588;SDS011;34369;51.174;6.738;2023-11-19T03:34:38;35.67;;;33.08;;
48588;SDS011;34369;51.174;6.738;2023-11-19T03:37:12;34.35;;;31.80;;
48588;SDS011;34369;51.174;6.738;2023-11-19T03:39:48;34.47;;;31.88;;
48588;SDS011;34369;51.174;6.738;2023-11-19T03:42:20;35.03;;;32.47;;
48588;SDS011;34369;51.174;6.738;2023-11-19T03:44:54;34.65;;;32.20;;
48588;SDS011;34369;51.174;6.738;2023-11-19T03:47:26;35.05;;;32.58;;
48588;SDS011;34369;51.174;6.738;2023-11-19T03:49:58;34.50;;;31.88;;
48588;SDS011;34369;51.174;6.738;2023-11-19T03:52:31;34.67;;;32.17;;
48588;SDS011;34369;51.174;6.738;2023-11-19T03:55:04;35.85;;;33.05;;
48588;SDS011;34369;51.174;6.738;2023-11-19T03:57:38;33.10;;;30.80;;
48588;SDS011;34369;51.174;6.738;2023-11-19T04:00:13;35.38;;;32.58;;
48588;SDS011;34369;51.174;6.738;2023-11-19T04:02:46;34.58;;;31.98;;
48588;SDS011;34369;51.174;6.738;2023-11-19T04:05:18;36.53;;;33.60;;
48588;SDS011;34369;51.174;6.738;2023-11-19T04:07:51;34.00;;;31.50;;
48588;SDS011;34369;51.174;6.738;2023-11-19T04:10:24;35.38;;;32.60;;
48588;SDS011;34369;51.174;6.738;2023-11-19T04:12:57;34.45;;;31.75;;
48588;SDS011;34369;51.174;6.738;2023-11-19T04:15:31;35.60;;;32.72;;
48588;SDS011;34369;51.174;6.738;2023-11-19T04:18:03;35.55;;;32.85;;
48588;SDS011;34369;51.174;6.738;2023-11-19T04:20:36;35.55;;;32.75;;
48588;SDS011;34369;51.174;6.738;2023-11-19T04:23:07;37.15;;;34.30;;
48588;SDS011;34369;51.174;6.738;2023-11-19T04:25:40;35.13;;;32.42;;
48588;SDS011;34369;51.174;6.738;2023-11-19T04:28:13;35.33;;;32.50;;
48588;SDS011;34369;51.174;6.738;2023-11-19T04:30:47;36.00;;;33.20;;
48588;SDS011;34369;51.174;6.738;2023-11-19T04:33:20;34.83;;;32.40;;
48588;SDS011;34369;51.174;6.738;2023-11-19T04:35:53;34.70;;;32.20;;
48588;SDS011;34369;51.174;6.738;2023-11-19T04:38:25;34.92;;;32.42;;
48588;SDS011;34369;51.174;6.738;2023-11-19T04:40:58;34.55;;;32.10;;
48588;SDS011;34369;51.174;6.738;2023-11-19T04:43:30;36.13;;;33.63;;
48588;SDS011;34369;51.174;6.738;2023-11-19T04:46:06;35.70;;;33.00;;
48588;SDS011;34369;51.174;6.738;2023-11-19T04:48:38;35.83;;;33.17;;
48588;SDS011;34369;51.174;6.738;2023-11-19T04:51:10;36.85;;;33.38;;
48588;SDS011;34369;51.174;6.738;2023-11-19T04:53:44;36.13;;;33.47;;
48588;SDS011;34369;51.174;6.738;2023-11-19T04:56:16;37.55;;;34.78;;
48588;SDS011;34369;51.174;6.738;2023-11-19T04:58:50;35.38;;;32.67;;
48588;SDS011;34369;51.174;6.738;2023-11-19T05:01:24;36.63;;;33.50;;
48588;SDS011;34369;51.174;6.738;2023-11-19T05:03:57;35.50;;;32.85;;
48588;SDS011;34369;51.174;6.738;2023-11-19T05:06:30;36.17;;;33.03;;
48588;SDS011;34369;51.174;6.738;2023-11-19T05:09:03;37.05;;;34.13;;
48588;SDS011;34369;51.174;6.738;2023-11-19T05:11:37;36.50;;;33.42;;
48588;SDS011;34369;51.174;6.738;2023-11-19T05:14:10;36.55;;;33.65;;
48588;SDS011;34369;51.174;6.738;2023-11-19T05:16:44;36.47;;;33.42;;
48588;SDS011;34369;51.174;6.738;2023-11-19T05:19:16;36.00;;;33.33;;
48588;SDS011;34369;51.174;6.738;2023-11-19T05:21:49;38.03;;;34.70;;
48588;SDS011;34369;51.174;6.738;2023-11-19T05:24:22;37.30;;;34.30;;
48588;SDS011;34369;51.174;6.738;2023-11-19T05:26:54;36.88;;;34.08;;
48588;SDS011;34369;51.174;6.738;2023-11-19T05:29:28;36.85;;;34.00;;
48588;SDS011;34369;51.174;6.738;2023-11-19T05:32:02;37.03;;;33.75;;
48588;SDS011;34369;51.174;6.738;2023-11-19T05:34:34;36.40;;;33.50;;
48588;SDS011;34369;51.174;6.738;2023-11-19T05:37:06;36.72;;;33.65;;
48588;SDS011;34369;51.174;6.738;2023-11-19T05:39:42;36.50;;;33.60;;
48588;SDS011;34369;51.174;6.738;2023-11-19T05:42:14;36.97;;;34.13;;
48588;SDS011;34369;51.174;6.738;2023-11-19T05:44:47;36.80;;;33.78;;
48588;SDS011;34369;51.174;6.738;2023-11-19T05:47:20;36.25;;;33.35;;
48588;SDS011;34369;51.174;6.738;2023-11-19T05:49:53;35.95;;;33.10;;
48588;SDS011;34369;51.174;6.738;2023-11-19T05:52:25;36.58;;;33.50;;
48588;SDS011;34369;51.174;6.738;2023-11-19T05:54:58;35.58;;;32.90;;
48588;SDS011;34369;51.174;6.738;2023-11-19T05:57:34;37.67;;;34.67;;
48588;SDS011;34369;51.174;6.738;2023-11-19T06:00:06;37.00;;;34.00;;
48588;SDS011;34369;51.174;6.738;2023-11-19T06:02:44;36.88;;;33.85;;
48588;SDS011;34369;51.174;6.738;2023-11-19T06:05:17;37.45;;;34.25;;
48588;SDS011;34369;51.174;6.738;2023-11-19T06:07:50;36.80;;;33.70;;
48588;SDS011;34369;51.174;6.738;2023-11-19T06:10:22;37.38;;;34.38;;
48588;SDS011;34369;51.174;6.738;2023-11-19T06:12:59;36.35;;;33.40;;
48588;SDS011;34369;51.174;6.738;2023-11-19T06:15:35;37.67;;;34.65;;
48588;SDS011;34369;51.174;6.738;2023-11-19T06:18:09;36.67;;;33.63;;
48588;SDS011;34369;51.174;6.738;2023-11-19T06:20:42;37.70;;;34.65;;
48588;SDS011;34369;51.174;6.738;2023-11-19T06:23:17;37.60;;;34.50;;
48588;SDS011;34369;51.174;6.738;2023-11-19T06:25:50;37.70;;;34.30;;
48588;SDS011;34369;51.174;6.738;2023-11-19T06:28:22;37.33;;;34.28;;
48588;SDS011;34369;51.174;6.738;2023-11-19T06:31:09;37.78;;;34.55;;
48588;SDS011;34369;51.174;6.738;2023-11-19T06:33:53;36.58;;;33.75;;
48588;SDS011;34369;51.174;6.738;2023-11-19T06:36:32;37.47;;;34.10;;
48588;SDS011;34369;51.174;6.738;2023-11-19T06:39:09;37.70;;;34.45;;
48588;SDS011;34369;51.174;6.738;2023-11-19T06:41:46;39.55;;;36.20;;
48588;SDS011;34369;51.174;6.738;2023-11-19T06:44:24;38.25;;;35.20;;
48588;SDS011;34369;51.174;6.738;2023-11-19T06:47:00;37.47;;;34.65;;
48588;SDS011;34369;51.174;6.738;2023-11-19T06:49:43;38.53;;;35.63;;
48588;SDS011;34369;51.174;6.738;2023-11-19T06:52:24;38.67;;;35.58;;
48588;SDS011;34369;51.174;6.738;2023-11-19T06:55:16;37.08;;;34.10;;
48588;SDS011;34369;51.174;6.738;2023-11-19T06:58:30;38.03;;;34.95;;
48588;SDS011;34369;51.174;6.738;2023-11-19T07:01:09;39.13;;;35.97;;
48588;SDS011;34369;51.174;6.738;2023-11-19T07:03:50;39.42;;;36.17;;
48588;SDS011;34369;51.174;6.738;2023-11-19T07:06:35;38.63;;;34.92;;
48588;SDS011;34369;51.174;6.738;2023-11-19T07:09:16;38.40;;;35.30;;
48588;SDS011;34369;51.174;6.738;2023-11-19T07:12:05;40.03;;;36.58;;
48588;SDS011;34369;51.174;6.738;2023-11-19T07:14:37;38.45;;;35.30;;
48588;SDS011;34369;51.174;6.738;2023-11-19T07:17:09;37.42;;;34.33;;
48588;SDS011;34369;51.174;6.738;2023-11-19T07:19:41;40.03;;;36.92;;
48588;SDS011;34369;51.174;6.738;2023-11-19T07:22:15;37.33;;;34.35;;
48588;SDS011;34369;51.174;6.738;2023-11-19T07:24:47;37.92;;;35.15;;
48588;SDS011;34369;51.174;6.738;2023-11-19T07:27:22;39.00;;;35.33;;
48588;SDS011;34369;51.174;6.738;2023-11-19T07:29:54;39.38;;;35.90;;
48588;SDS011;34369;51.174;6.738;2023-11-19T07:32:26;38.15;;;35.05;;
48588;SDS011;34369;51.174;6.738;2023-11-19T07:34:58;38.92;;;35.70;;
48588;SDS011;34369;51.174;6.738;2023-11-19T07:37:32;39.17;;;35.85;;
48588;SDS011;34369;51.174;6.738;2023-11-19T07:40:05;38.22;;;35.03;;
48588;SDS011;34369;51.174;6.738;2023-11-19T07:42:38;38.70;;;35.50;;
48588;SDS011;34369;51.174;6.738;2023-11-19T07:45:11;39.75;;;36.25;;
48588;SDS011;34369;51.174;6.738;2023-11-19T07:47:43;37.45;;;34.60;;
48588;SDS011;34369;51.174;6.738;2023-11-19T07:50:15;38.38;;;35.25;;
48588;SDS011;34369;51.174;6.738;2023-11-19T07:52:51;39.00;;;35.78;;
48588;SDS011;34369;51.174;6.738;2023-11-19T07:55:24;38.17;;;35.08;;
48588;SDS011;34369;51.174;6.738;2023-11-19T07:57:57;39.45;;;36.05;;
48588;SDS011;34369;51.174;6.738;2023-11-19T08:00:29;38.78;;;35.50;;
48588;SDS011;34369;51.174;6.738;2023-11-19T08:03:01;37.95;;;34.85;;
48588;SDS011;34369;51.174;6.738;2023-11-19T08:05:37;38.88;;;35.40;;
48588;SDS011;34369;51.174;6.738;2023-11-19T08:08:11;38.45;;;35.35;;
48588;SDS011;34369;51.174;6.738;2023-11-19T08:10:43;37.97;;;35.00;;
48588;SDS011;34369;51.174;6.738;2023-11-19T08:13:19;38.72;;;35.55;;
48588;SDS011;34369;51.174;6.738;2023-11-19T08:15:52;37.80;;;34.38;;
48588;SDS011;34369;51.174;6.738;2023-11-19T08:18:25;37.42;;;34.10;;
48588;SDS011;34369;51.174;6.738;2023-11-19T08:20:57;37.53;;;34.53;;
48588;SDS011;34369;51.174;6.738;2023-11-19T08:23:32;38.60;;;35.60;;
48588;SDS011;34369;51.174;6.738;2023-11-19T08:26:04;38.03;;;34.88;;
48588;SDS011;34369;51.174;6.738;2023-11-19T08:28:37;40.25;;;36.83;;
48588;SDS011;34369;51.174;6.738;2023-11-19T08:31:11;38.95;;;35.58;;
48588;SDS011;34369;51.174;6.738;2023-11-19T08:33:43;37.72;;;34.55;;
48588;SDS011;34369;51.174;6.738;2023-11-19T08:36:16;38.83;;;35.28;;
48588;SDS011;34369;51.174;6.738;2023-11-19T08:38:49;37.75;;;34.25;;
48588;SDS011;34369;51.174;6.738;2023-11-19T08:41:22;37.65;;;34.28;;
48588;SDS011;34369;51.174;6.738;2023-11-19T08:43:55;37.10;;;34.10;;
48588;SDS011;34369;51.174;6.738;2023-11-19T08:49:03;38.03;;;34.60;;
48588;SDS011;34369;51.174;6.738;2023-11-19T08:51:45;36.90;;;33.75;;
48588;SDS011;34369;51.174;6.738;2023-11-19T08:54:21;37.25;;;34.40;;
48588;SDS011;34369;51.174;6.738;2023-11-19T08:57:14;38.15;;;34.92;;
48588;SDS011;34369;51.174;6.738;2023-11-19T09:00:50;36.58;;;33.58;;
48588;SDS011;34369;51.174;6.738;2023-11-19T09:03:53;36.60;;;33.40;;
48588;SDS011;34369;51.174;6.738;2023-11-19T09:07:22;37.40;;;33.83;;
48588;SDS011;34369;51.174;6.738;2023-11-19T09:09:57;37.40;;;34.13;;
48588;SDS011;34369;51.174;6.738;2023-11-19T09:16:32;36.40;;;33.47;;
48588;SDS011;34369;51.174;6.738;2023-11-19T09:22:11;35.40;;;32.47;;
48588;SDS011;34369;51.174;6.738;2023-11-19T09:27:59;35.88;;;32.50;;
48588;SDS011;34369;51.174;6.738;2023-11-19T09:31:12;36.42;;;33.13;;
48588;SDS011;34369;51.174;6.738;2023-11-19T09:33:51;36.80;;;33.45;;
48588;SDS011;34369;51.174;6.738;2023-11-19T09:36:31;37.10;;;33.50;;
48588;SDS011;34369;51.174;6.738;2023-11-19T09:39:24;35.45;;;32.35;;
48588;SDS011;34369;51.174;6.738;2023-11-19T09:42:09;35.85;;;32.65;;
48588;SDS011;34369;51.174;6.738;2023-11-19T09:45:04;35.80;;;32.75;;
48588;SDS011;34369;51.174;6.738;2023-11-19T09:52:24;35.65;;;32.28;;
48588;SDS011;34369;51.174;6.738;2023-11-19T09:55:45;36.28;;;33.15;;
48588;SDS011;34369;51.174;6.738;2023-11-19T09:59:05;36.38;;;33.10;;
48588;SDS011;34369;51.174;6.738;2023-11-19T10:02:22;36.75;;;33.45;;
48588;SDS011;34369;51.174;6.738;2023-11-19T10:05:39;37.22;;;33.90;;
48588;SDS011;34369;51.174;6.738;2023-11-19T10:09:13;35.65;;;32.50;;
48588;SDS011;34369;51.174;6.738;2023-11-19T10:16:09;36.25;;;33.20;;
48588;SDS011;34369;51.174;6.738;2023-11-19T10:18:56;36.40;;;33.33;;
48588;SDS011;34369;51.174;6.738;2023-11-19T10:21:36;35.97;;;32.83;;
48588;SDS011;34369;51.174;6.738;2023-11-19T10:24:13;35.78;;;32.83;;
48588;SDS011;34369;51.174;6.738;2023-11-19T10:26:51;36.38;;;33.05;;
48588;SDS011;34369;51.174;6.738;2023-11-19T10:29:45;36.70;;;33.47;;
48588;SDS011;34369;51.174;6.738;2023-11-19T10:32:22;36.75;;;33.55;;
48588;SDS011;34369;51.174;6.738;2023-11-19T10:35:05;36.25;;;32.88;;
48588;SDS011;34369;51.174;6.738;2023-11-19T10:37:52;36.17;;;33.00;;
48588;SDS011;34369;51.174;6.738;2023-11-19T10:40:50;35.67;;;32.67;;
48588;SDS011;34369;51.174;6.738;2023-11-19T10:43:58;35.63;;;32.58;;
48588;SDS011;34369;51.174;6.738;2023-11-19T10:47:13;35.80;;;32.80;;
48588;SDS011;34369;51.174;6.738;2023-11-19T10:53:00;35.20;;;32.28;;
48588;SDS011;34369;51.174;6.738;2023-11-19T10:55:59;34.65;;;31.52;;
48588;SDS011;34369;51.174;6.738;2023-11-19T10:58:59;37.05;;;33.83;;
48588;SDS011;34369;51.174;6.738;2023-11-19T11:01:45;35.67;;;32.75;;
48588;SDS011;34369;51.174;6.738;2023-11-19T11:04:36;35.30;;;32.20;;
48588;SDS011;34369;51.174;6.738;2023-11-19T11:08:11;36.22;;;33.13;;
48588;SDS011;34369;51.174;6.738;2023-11-19T11:10:59;35.42;;;32.47;;
48588;SDS011;34369;51.174;6.738;2023-11-19T11:13:47;35.65;;;32.78;;
48588;SDS011;34369;51.174;6.738;2023-11-19T11:20:06;36.03;;;32.67;;
48588;SDS011;34369;51.174;6.738;2023-11-19T11:22:49;34.92;;;32.03;;
48588;SDS011;34369;51.174;6.738;2023-11-19T11:26:12;35.25;;;32.03;;
48588;SDS011;34369;51.174;6.738;2023-11-19T11:29:24;35.58;;;32.92;;
48588;SDS011;34369;51.174;6.738;2023-11-19T11:32:15;33.88;;;31.23;;
48588;SDS011;34369;51.174;6.738;2023-11-19T11:35:27;34.78;;;31.77;;
48588;SDS011;34369;51.174;6.738;2023-11-19T11:38:13;34.33;;;31.58;;
48588;SDS011;34369;51.174;6.738;2023-11-19T11:41:36;34.85;;;32.05;;
48588;SDS011;34369;51.174;6.738;2023-11-19T11:45:18;34.20;;;31.50;;
48588;SDS011;34369;51.174;6.738;2023-11-19T11:48:15;35.25;;;32.35;;
48588;SDS011;34369;51.174;6.738;2023-11-19T11:51:09;34.78;;;32.03;;
48588;SDS011;34369;51.174;6.738;2023-11-19T11:53:48;34.42;;;31.83;;
48588;SDS011;34369;51.174;6.738;2023-11-19T11:56:33;35.13;;;32.20;;
48588;SDS011;34369;51.174;6.738;2023-11-19T11:59:22;34.50;;;31.52;;
48588;SDS011;34369;51.174;6.738;2023-11-19T12:02:24;34.45;;;31.40;;
48588;SDS011;34369;51.174;6.738;2023-11-19T12:08:24;34.20;;;31.50;;
48588;SDS011;34369;51.174;6.738;2023-11-19T12:11:07;34.78;;;31.98;;
48588;SDS011;34369;51.174;6.738;2023-11-19T12:13:58;33.47;;;30.67;;
48588;SDS011;34369;51.174;6.738;2023-11-19T12:16:39;34.72;;;32.13;;
48588;SDS011;34369;51.174;6.738;2023-11-19T12:19:40;34.20;;;31.50;;
48588;SDS011;34369;51.174;6.738;2023-11-19T12:22:27;34.72;;;31.67;;
48588;SDS011;34369;51.174;6.738;2023-11-19T12:25:17;34.67;;;31.92;;
48588;SDS011;34369;51.174;6.738;2023-11-19T12:28:36;34.15;;;31.40;;
48588;SDS011;34369;51.174;6.738;2023-11-19T12:31:19;34.90;;;32.20;;
48588;SDS011;34369;51.174;6.738;2023-11-19T12:34:00;34.53;;;31.67;;
48588;SDS011;34369;51.174;6.738;2023-11-19T12:36:55;34.50;;;31.70;;
48588;SDS011;34369;51.174;6.738;2023-11-19T12:39:50;34.47;;;31.77;;
48588;SDS011;34369;51.174;6.738;2023-11-19T12:42:49;35.88;;;33.08;;
48588;SDS011;34369;51.174;6.738;2023-11-19T12:45:41;35.67;;;33.00;;
48588;SDS011;34369;51.174;6.738;2023-11-19T12:48:48;36.28;;;33.33;;
48588;SDS011;34369;51.174;6.738;2023-11-19T12:51:30;35.08;;;32.35;;
48588;SDS011;34369;51.174;6.738;2023-11-19T12:54:37;35.55;;;32.80;;
48588;SDS011;34369;51.174;6.738;2023-11-19T12:57:44;35.45;;;32.88;;
48588;SDS011;34369;51.174;6.738;2023-11-19T13:00:26;35.03;;;31.98;;
48588;SDS011;34369;51.174;6.738;2023-11-19T13:06:22;35.00;;;32.30;;
48588;SDS011;34369;51.174;6.738;2023-11-19T13:09:49;35.22;;;32.33;;
48588;SDS011;34369;51.174;6.738;2023-11-19T13:13:12;34.95;;;32.08;;
48588;SDS011;34369;51.174;6.738;2023-11-19T13:16:04;33.60;;;30.95;;
48588;SDS011;34369;51.174;6.738;2023-11-19T13:18:43;34.58;;;32.10;;
48588;SDS011;34369;51.174;6.738;2023-11-19T13:21:27;33.03;;;30.13;;
48588;SDS011;34369;51.174;6.738;2023-11-19T13:25:11;33.80;;;31.27;;
48588;SDS011;34369;51.174;6.738;2023-11-19T13:31:54;33.90;;;31.15;;
48588;SDS011;34369;51.174;6.738;2023-11-19T13:34:50;34.58;;;31.58;;
48588;SDS011;34369;51.174;6.738;2023-11-19T13:37:31;34.35;;;31.70;;
48588;SDS011;34369;51.174;6.738;2023-11-19T13:40:10;34.60;;;31.73;;
48588;SDS011;34369;51.174;6.738;2023-11-19T13:43:08;33.88;;;31.20;;
48588;SDS011;34369;51.174;6.738;2023-11-19T13:45:54;35.10;;;32.20;;
48588;SDS011;34369;51.174;6.738;2023-11-19T13:48:33;35.05;;;31.90;;
48588;SDS011;34369;51.174;6.738;2023-11-19T13:51:19;35.28;;;32.58;;
48588;SDS011;34369;51.174;6.738;2023-11-19T13:53:57;35.13;;;32.22;;
48588;SDS011;34369;51.174;6.738;2023-11-19T13:56:35;35.53;;;32.60;;
48588;SDS011;34369;51.174;6.738;2023-11-19T13:59:12;35.13;;;32.33;;
48588;SDS011;34369;51.174;6.738;2023-11-19T14:01:51;36.08;;;33.05;;
48588;SDS011;34369;51.174;6.738;2023-11-19T14:04:34;35.42;;;32.45;;
48588;SDS011;34369;51.174;6.738;2023-11-19T14:07:29;34.90;;;32.15;;
48588;SDS011;34369;51.174;6.738;2023-11-19T14:10:24;35.38;;;32.55;;
48588;SDS011;34369;51.174;6.738;2023-11-19T14:13:15;35.38;;;32.58;;
48588;SDS011;34369;51.174;6.738;2023-11-19T14:15:54;35.35;;;32.60;;
48588;SDS011;34369;51.174;6.738;2023-11-19T14:18:45;35.65;;;32.85;;
48588;SDS011;34369;51.174;6.738;2023-11-19T14:21:24;36.45;;;33.13;;
48588;SDS011;34369;51.174;6.738;2023-11-19T14:24:02;36.33;;;33.47;;
48588;SDS011;34369;51.174;6.738;2023-11-19T14:26:40;36.35;;;33.45;;
48588;SDS011;34369;51.174;6.738;2023-11-19T14:29:22;35.97;;;33.28;;
48588;SDS011;34369;51.174;6.738;2023-11-19T14:32:21;35.78;;;32.88;;
48588;SDS011;34369;51.174;6.738;2023-11-19T14:35:01;36.30;;;33.35;;
48588;SDS011;34369;51.174;6.738;2023-11-19T14:37:42;36.95;;;33.72;;
48588;SDS011;34369;51.174;6.738;2023-11-19T14:40:19;36.55;;;33.33;;
48588;SDS011;34369;51.174;6.738;2023-11-19T14:42:57;36.40;;;33.47;;
48588;SDS011;34369;51.174;6.738;2023-11-19T14:45:36;36.50;;;33.60;;
48588;SDS011;34369;51.174;6.738;2023-11-19T14:51:18;36.60;;;33.55;;
48588;SDS011;34369;51.174;6.738;2023-11-19T14:54:30;36.17;;;33.30;;
48588;SDS011;34369;51.174;6.738;2023-11-19T14:57:12;36.95;;;33.83;;
48588;SDS011;34369;51.174;6.738;2023-11-19T15:02:43;37.08;;;33.85;;
48588;SDS011;34369;51.174;6.738;2023-11-19T15:05:21;35.88;;;33.22;;
48588;SDS011;34369;51.174;6.738;2023-11-19T15:07:57;36.65;;;33.85;;
48588;SDS011;34369;51.174;6.738;2023-11-19T15:10:41;36.05;;;33.13;;
48588;SDS011;34369;51.174;6.738;2023-11-19T15:13:22;37.03;;;34.13;;
48588;SDS011;34369;51.174;6.738;2023-11-19T15:15:55;36.28;;;33.30;;
48588;SDS011;34369;51.174;6.738;2023-11-19T15:20:58;37.45;;;34.35;;
48588;SDS011;34369;51.174;6.738;2023-11-19T15:23:36;37.28;;;34.15;;
48588;SDS011;34369;51.174;6.738;2023-11-19T15:26:12;36.85;;;33.92;;
48588;SDS011;34369;51.174;6.738;2023-11-19T15:28:50;36.00;;;33.10;;
48588;SDS011;34369;51.174;6.738;2023-11-19T15:31:29;35.40;;;32.97;;
48588;SDS011;34369;51.174;6.738;2023-11-19T15:34:07;36.67;;;33.80;;
48588;SDS011;34369;51.174;6.738;2023-11-19T15:36:46;37.05;;;34.15;;
48588;SDS011;34369;51.174;6.738;2023-11-19T15:39:22;36.85;;;34.20;;
48588;SDS011;34369;51.174;6.738;2023-11-19T15:42:00;36.08;;;33.13;;
48588;SDS011;34369;51.174;6.738;2023-11-19T15:44:41;35.85;;;32.75;;
48588;SDS011;34369;51.174;6.738;2023-11-19T15:47:18;35.97;;;33.35;;
48588;SDS011;34369;51.174;6.738;2023-11-19T15:49:54;38.58;;;35.53;;
48588;SDS011;34369;51.174;6.738;2023-11-19T15:52:35;36.28;;;33.47;;
48588;SDS011;34369;51.174;6.738;2023-11-19T15:55:16;36.53;;;33.83;;
48588;SDS011;34369;51.174;6.738;2023-11-19T15:57:55;37.25;;;34.35;;
48588;SDS011;34369;51.174;6.738;2023-11-19T16:00:32;35.75;;;32.95;;
48588;SDS011;34369;51.174;6.738;2023-11-19T16:03:11;36.25;;;33.30;;
48588;SDS011;34369;51.174;6.738;2023-11-19T16:05:49;37.33;;;34.38;;
48588;SDS011;34369;51.174;6.738;2023-11-19T16:08:24;35.70;;;33.10;;
48588;SDS011;34369;51.174;6.738;2023-11-19T16:10:58;36.50;;;34.00;;
48588;SDS011;34369;51.174;6.738;2023-11-19T16:13:31;37.70;;;34.80;;
48588;SDS011;34369;51.174;6.738;2023-11-19T16:16:04;37.38;;;34.35;;
48588;SDS011;34369;51.174;6.738;2023-11-19T16:18:38;37.85;;;34.60;;
48588;SDS011;34369;51.174;6.738;2023-11-19T16:21:11;37.88;;;34.92;;
48588;SDS011;34369;51.174;6.738;2023-11-19T16:23:46;37.05;;;34.10;;
48588;SDS011;34369;51.174;6.738;2023-11-19T16:26:18;37.05;;;33.92;;
48588;SDS011;34369;51.174;6.738;2023-11-19T16:28:51;36.28;;;33.42;;
48588;SDS011;34369;51.174;6.738;2023-11-19T16:31:23;36.38;;;33.50;;
48588;SDS011;34369;51.174;6.738;2023-11-19T16:33:56;37.35;;;34.42;;
48588;SDS011;34369;51.174;6.738;2023-11-19T16:36:30;36.80;;;34.03;;
48588;SDS011;34369;51.174;6.738;2023-11-19T16:39:04;36.03;;;32.90;;
48588;SDS011;34369;51.174;6.738;2023-11-19T16:41:38;37.53;;;34.45;;
48588;SDS011;34369;51.174;6.738;2023-11-19T16:44:13;37.50;;;34.60;;
48588;SDS011;34369;51.174;6.738;2023-11-19T16:46:45;37.13;;;34.22;;
48588;SDS011;34369;51.174;6.738;2023-11-19T16:49:18;37.05;;;34.13;;
48588;SDS011;34369;51.174;6.738;2023-11-19T16:51:50;37.45;;;34.78;;
48588;SDS011;34369;51.174;6.738;2023-11-19T16:54:25;37.15;;;34.05;;